Time;durP1;ratioP1;P1;durP2;ratioP2;P2;SDS_P1;SDS_P2;PMS_P1;PMS_P2;Temp;Humidity;BMP_temperature;BMP_pressure;BME280_temperature;BME280_humidity;BME280_pressure;Samples;Min_cycle;Max_cycle;Signal;HPM_P1;HPM_P2
2022/12/10 00:02:10;;;;;;;21.5;8.6;;;;;;;;;;;;;-75
2022/12/10 00:02:32;;;;;;;;;;;;;;;-1.4;96.06445;100908.7;;;;-74
2022/12/10 00:07:32;;;;;;;;;;;;;;;-1.36;96.26563;100904.4;;;;-75
2022/12/10 00:12:32;;;;;;;;;;;;;;;-1.35;96.12891;100910;;;;-76
2022/12/10 00:17:32;;;;;;;;;;;;;;;-1.31;96.26758;100908;;;;-76
2022/12/10 00:22:32;;;;;;;;;;;;;;;-1.25;96.37598;100907.8;;;;-75
2022/12/10 00:27:34;;;;;;;;;;;;;;;-1.21;96.81445;100909.4;;;;-76
2022/12/10 00:32:09;;;;;;;24.5;9.1;;;;;;;;;;;;;-74
2022/12/10 00:32:33;;;;;;;;;;;;;;;-1.16;96.69824;100907.5;;;;-74
2022/12/10 00:37:32;;;;;;;;;;;;;;;-1.09;96.65918;100909.6;;;;-75
2022/12/10 00:42:32;;;;;;;;;;;;;;;-1.06;96.93555;100907.1;;;;-75
2022/12/10 00:47:33;;;;;;;;;;;;;;;-0.97;97.05078;100906.1;;;;-75
2022/12/10 00:52:32;;;;;;;;;;;;;;;-0.93;97.11426;100897.1;;;;-75
2022/12/10 00:57:32;;;;;;;;;;;;;;;-0.89;97.1123;100908.3;;;;-76
2022/12/10 01:02:09;;;;;;;26.9;9.3;;;;;;;;;;;;;-75
2022/12/10 01:02:32;;;;;;;;;;;;;;;-0.84;96.99414;100908.6;;;;-77
2022/12/10 01:07:32;;;;;;;;;;;;;;;-0.79;96.89941;100930.7;;;;-76
2022/12/10 01:12:32;;;;;;;;;;;;;;;-0.77;96.93555;100923.8;;;;-76
2022/12/10 01:17:32;;;;;;;;;;;;;;;-0.75;97.26074;100931.8;;;;-76
2022/12/10 01:22:32;;;;;;;;;;;;;;;-0.72;97.28906;100922.3;;;;-76
2022/12/10 01:27:32;;;;;;;;;;;;;;;-0.67;97.77539;100927.4;;;;-76
2022/12/10 01:32:07;;;;;;;26.3;9.4;;;;;;;;;;;;;-77
2022/12/10 01:32:32;;;;;;;;;;;;;;;-0.62;97.62207;100938.2;;;;-77
2022/12/10 01:37:33;;;;;;;;;;;;;;;-0.61;97.46582;100945.4;;;;-76
2022/12/10 01:42:32;;;;;;;;;;;;;;;-0.58;97.61133;100936.7;;;;-76
2022/12/10 01:47:32;;;;;;;;;;;;;;;-0.55;97.70313;100933.4;;;;-76
2022/12/10 01:52:32;;;;;;;;;;;;;;;-0.55;97.8877;100935.2;;;;-76
2022/12/10 01:57:33;;;;;;;;;;;;;;;-0.52;97.78711;100936.2;;;;-77
2022/12/10 02:02:12;;;;;;;24.5;9.4;;;;;;;;;;;;;-76
2022/12/10 02:02:40;;;;;;;;;;;;;;;-0.51;97.71387;100938.1;;;;-76
2022/12/10 02:07:38;;;;;;;;;;;;;;;-0.46;97.4043;100949.5;;;;-75
2022/12/10 02:12:37;;;;;;;;;;;;;;;-0.45;97.49023;100958.4;;;;-75
2022/12/10 02:17:35;;;;;;;;;;;;;;;-0.43;97.30176;100954.1;;;;-76
2022/12/10 02:22:34;;;;;;;;;;;;;;;-0.42;97.49902;100956.4;;;;-75
2022/12/10 02:27:36;;;;;;;;;;;;;;;-0.42;97.50684;100948.3;;;;-75
2022/12/10 02:32:08;;;;;;;24.2;9;;;;;;;;;;;;;-76
2022/12/10 02:32:35;;;;;;;;;;;;;;;-0.41;97.41504;100951.3;;;;-76
2022/12/10 02:37:33;;;;;;;;;;;;;;;-0.41;97.47949;100948.3;;;;-75
2022/12/10 02:42:33;;;;;;;;;;;;;;;-0.38;97.24902;100950.7;;;;-76
2022/12/10 02:47:33;;;;;;;;;;;;;;;-0.36;97.14648;100953.3;;;;-76
2022/12/10 02:52:32;;;;;;;;;;;;;;;-0.35;97.03027;100949.7;;;;-78
2022/12/10 02:57:37;;;;;;;;;;;;;;;-0.34;97.17383;100944.6;;;;-75
2022/12/10 03:02:09;;;;;;;20;7.9;;;;;;;;;;;;;-76
2022/12/10 03:02:35;;;;;;;;;;;;;;;-0.32;96.99609;100942.4;;;;-75
2022/12/10 03:07:36;;;;;;;;;;;;;;;-0.32;97.12402;100939.6;;;;-74
2022/12/10 03:12:33;;;;;;;;;;;;;;;-0.3;97.01953;100937;;;;-76
2022/12/10 03:17:35;;;;;;;;;;;;;;;-0.31;97.30859;100932.6;;;;-75
2022/12/10 03:22:33;;;;;;;;;;;;;;;-0.31;97.30859;100935.1;;;;-75
2022/12/10 03:27:33;;;;;;;;;;;;;;;-0.3;97.34082;100941.3;;;;-75
2022/12/10 03:32:04;;;;;;;21.2;7.3;;;;;;;;;;;;;-76
2022/12/10 03:32:36;;;;;;;;;;;;;;;-0.29;97.20801;100944.2;;;;-75
2022/12/10 03:37:34;;;;;;;;;;;;;;;-0.29;97.20801;100934.5;;;;-75
2022/12/10 03:42:33;;;;;;;;;;;;;;;-0.28;97.3584;100935.7;;;;-75
2022/12/10 03:47:32;;;;;;;;;;;;;;;-0.28;97.34766;100933.3;;;;-75
2022/12/10 03:52:33;;;;;;;;;;;;;;;-0.26;97.59863;100931.9;;;;-75
2022/12/10 03:57:32;;;;;;;;;;;;;;;-0.27;97.4248;100934;;;;-75
2022/12/10 04:02:03;;;;;;;26.5;9.3;;;;;;;;;;;;;-75
2022/12/10 04:02:33;;;;;;;;;;;;;;;-0.25;97.33203;100925.4;;;;-76
2022/12/10 04:07:32;;;;;;;;;;;;;;;-0.23;97.31445;100931.9;;;;-76
2022/12/10 04:12:33;;;;;;;;;;;;;;;-0.23;97.1748;100930.3;;;;-77
2022/12/10 04:17:35;;;;;;;;;;;;;;;-0.2;97.28906;100933.9;;;;-76
2022/12/10 04:27:33;;;;;;;;;;;;;;;-0.21;97.46094;100940.7;;;;-75
2022/12/10 04:32:02;;;;;;;26.8;9.7;;;;;;;;;;;;;-75
2022/12/10 04:32:33;;;;;;;;;;;;;;;-0.19;97.43262;100941.1;;;;-76
2022/12/10 04:37:33;;;;;;;;;;;;;;;-0.18;97.37012;100943.4;;;;-76
2022/12/10 04:42:32;;;;;;;;;;;;;;;-0.17;97.38086;100945.3;;;;-75
2022/12/10 04:47:32;;;;;;;;;;;;;;;-0.17;97.43652;100944.4;;;;-77
2022/12/10 04:52:32;;;;;;;;;;;;;;;-0.18;97.3916;100944.4;;;;-75
2022/12/10 04:57:32;;;;;;;;;;;;;;;-0.18;97.33789;100940.5;;;;-75
2022/12/10 05:02:04;;;;;;;28;9.3;;;;;;;;;;;;;-75
2022/12/10 05:07:38;;;;;;;;;;;;;;;-0.18;97.4668;100943.7;;;;-76
2022/12/10 05:12:33;;;;;;;;;;;;;;;-0.16;97.28809;100941.2;;;;-75
2022/12/10 05:17:32;;;;;;;;;;;;;;;-0.15;97.46191;100950.2;;;;-76
2022/12/10 05:27:34;;;;;;;;;;;;;;;-0.16;97.24512;100953.7;;;;-75
2022/12/10 05:32:00;;;;;;;24.9;9.1;;;;;;;;;;;;;-76
2022/12/10 05:32:32;;;;;;;;;;;;;;;-0.16;97.53516;100949.9;;;;-76
2022/12/10 05:37:32;;;;;;;;;;;;;;;-0.16;97.58887;100945.6;;;;-75
2022/12/10 05:42:33;;;;;;;;;;;;;;;-0.15;97.23633;100950.7;;;;-76
2022/12/10 05:47:32;;;;;;;;;;;;;;;-0.16;97.43848;100953.1;;;;-75
2022/12/10 05:52:32;;;;;;;;;;;;;;;-0.17;97.66016;100947.5;;;;-76
2022/12/10 05:57:32;;;;;;;;;;;;;;;-0.17;97.62988;100951.6;;;;-75
2022/12/10 06:01:59;;;;;;;23.7;8;;;;;;;;;;;;;-76
2022/12/10 06:02:32;;;;;;;;;;;;;;;-0.19;97.6582;100945;;;;-76
2022/12/10 06:07:33;;;;;;;;;;;;;;;-0.18;97.57422;100955.7;;;;-76
2022/12/10 06:12:35;;;;;;;;;;;;;;;-0.2;97.64453;100956.8;;;;-75
2022/12/10 06:17:32;;;;;;;;;;;;;;;-0.19;97.56152;100956.3;;;;-76
2022/12/10 06:22:33;;;;;;;;;;;;;;;-0.2;97.83789;100965.5;;;;-76
2022/12/10 06:27:32;;;;;;;;;;;;;;;-0.2;97.81641;100967.3;;;;-75
2022/12/10 06:31:59;;;;;;;27.1;8.1;;;;;;;;;;;;;-75
2022/12/10 06:32:32;;;;;;;;;;;;;;;-0.23;97.90723;100969.3;;;;-75
2022/12/10 06:37:32;;;;;;;;;;;;;;;-0.21;97.80371;100969;;;;-75
2022/12/10 06:42:32;;;;;;;;;;;;;;;-0.21;97.61914;100977.6;;;;-76
2022/12/10 06:47:32;;;;;;;;;;;;;;;-0.19;97.63672;100985.5;;;;-75
2022/12/10 06:52:32;;;;;;;;;;;;;;;-0.22;97.61914;100985.7;;;;-75
2022/12/10 06:57:32;;;;;;;;;;;;;;;-0.19;97.63672;100994.4;;;;-75
2022/12/10 07:01:57;;;;;;;23.6;7.4;;;;;;;;;;;;;-76
2022/12/10 07:02:33;;;;;;;;;;;;;;;-0.22;97.67285;100996.7;;;;-75
2022/12/10 07:07:32;;;;;;;;;;;;;;;-0.21;97.69629;101001.9;;;;-75
2022/12/10 07:12:32;;;;;;;;;;;;;;;-0.21;97.76074;101007.3;;;;-75
2022/12/10 07:17:33;;;;;;;;;;;;;;;-0.22;97.57617;101018.6;;;;-76
2022/12/10 07:22:32;;;;;;;;;;;;;;;-0.23;97.54199;101018.4;;;;-76
2022/12/10 07:27:32;;;;;;;;;;;;;;;-0.23;97.67969;101021.4;;;;-76
2022/12/10 07:31:57;;;;;;;17.4;6.8;;;;;;;;;;;;;-76
2022/12/10 07:32:32;;;;;;;;;;;;;;;-0.23;97.66895;101025.5;;;;-76
2022/12/10 07:37:32;;;;;;;;;;;;;;;-0.22;97.74609;101025;;;;-75
2022/12/10 07:42:33;;;;;;;;;;;;;;;-0.25;97.74902;101024.8;;;;-76
2022/12/10 07:47:32;;;;;;;;;;;;;;;-0.26;97.77051;101022.9;;;;-76
2022/12/10 07:52:32;;;;;;;;;;;;;;;-0.26;97.79199;101023.5;;;;-76
2022/12/10 07:57:33;;;;;;;;;;;;;;;-0.26;97.6416;101022.6;;;;-76
2022/12/10 08:01:55;;;;;;;21.7;6.5;;;;;;;;;;;;;-77
2022/12/10 08:02:32;;;;;;;;;;;;;;;-0.26;97.7168;101022.5;;;;-76
2022/12/10 08:07:32;;;;;;;;;;;;;;;-0.27;97.5752;101034.3;;;;-76
2022/12/10 08:12:32;;;;;;;;;;;;;;;-0.29;97.84961;101041;;;;-77
2022/12/10 08:17:32;;;;;;;;;;;;;;;-0.27;97.72461;101039;;;;-77
2022/12/10 08:22:33;;;;;;;;;;;;;;;-0.27;97.73535;101045.2;;;;-75
2022/12/10 08:27:32;;;;;;;;;;;;;;;-0.24;97.51855;101047;;;;-76
2022/12/10 08:31:54;;;;;;;19.4;6.2;;;;;;;;;;;;;-76
2022/12/10 08:32:32;;;;;;;;;;;;;;;-0.22;97.59766;101049.9;;;;-77
2022/12/10 08:37:32;;;;;;;;;;;;;;;-0.23;97.51855;101055.2;;;;-76
2022/12/10 08:42:32;;;;;;;;;;;;;;;-0.18;97.44531;101064.3;;;;-76
2022/12/10 08:47:32;;;;;;;;;;;;;;;-0.18;97.44531;101064;;;;-76
2022/12/10 08:52:33;;;;;;;;;;;;;;;-0.17;97.37207;101068.8;;;;-76
2022/12/10 08:57:34;;;;;;;;;;;;;;;-0.16;97.63184;101075;;;;-76
2022/12/10 09:01:54;;;;;;;18.9;6.5;;;;;;;;;;;;;-75
2022/12/10 09:02:32;;;;;;;;;;;;;;;-0.14;97.81836;101078.7;;;;-76
2022/12/10 09:07:34;;;;;;;;;;;;;;;-0.15;97.93262;101093;;;;-75
2022/12/10 09:12:32;;;;;;;;;;;;;;;-0.15;97.87012;101093.9;;;;-76
2022/12/10 09:17:35;;;;;;;;;;;;;;;-0.11;97.74121;101100;;;;-76
2022/12/10 09:22:36;;;;;;;;;;;;;;;-0.11;97.87012;101101;;;;-76
2022/12/10 09:27:33;;;;;;;;;;;;;;;-0.08;97.56445;101098.3;;;;-76
2022/12/10 09:31:53;;;;;;;20.8;7.1;;;;;;;;;;;;;-76
2022/12/10 09:32:34;;;;;;;;;;;;;;;-0.06;97.81543;101097;;;;-76
2022/12/10 09:37:32;;;;;;;;;;;;;;;-0.09;98.07813;101110.2;;;;-76
2022/12/10 09:42:37;;;;;;;;;;;;;;;-0.06;97.9873;101105.2;;;;-76
2022/12/10 09:47:37;;;;;;;;;;;;;;;-0.04;97.86328;101107.7;;;;-77
2022/12/10 09:52:36;;;;;;;;;;;;;;;-0.02;97.86719;101109.4;;;;-76
2022/12/10 09:57:34;;;;;;;;;;;;;;;0.01;97.92676;101118.4;;;;-76
2022/12/10 10:01:52;;;;;;;19.9;7.1;;;;;;;;;;;;;-76
2022/12/10 10:02:34;;;;;;;;;;;;;;;0;98.02148;101114.9;;;;-76
2022/12/10 10:07:34;;;;;;;;;;;;;;;0.03;97.86035;101121.3;;;;-76
2022/12/10 10:12:37;;;;;;;;;;;;;;;0.04;97.87109;101119.4;;;;-76
2022/12/10 10:17:37;;;;;;;;;;;;;;;0.05;98.04492;101115.9;;;;-76
2022/12/10 10:22:34;;;;;;;;;;;;;;;0.09;97.95898;101119.9;;;;-76
2022/12/10 10:27:35;;;;;;;;;;;;;;;0.1;98.04688;101116.8;;;;-77
2022/12/10 10:31:50;;;;;;;20;8.1;;;;;;;;;;;;;-76
2022/12/10 10:32:45;;;;;;;;;;;;;;;0.13;97.95605;101120.9;;;;-77
2022/12/10 10:37:35;;;;;;;;;;;;;;;0.15;98.00098;101122.3;;;;-78
2022/12/10 10:42:38;;;;;;;;;;;;;;;0.15;98.12988;101123.2;;;;-77
2022/12/10 10:47:36;;;;;;;;;;;;;;;0.14;98.33398;101125.3;;;;-78
2022/12/10 10:52:40;;;;;;;;;;;;;;;0.16;98.08301;101130.6;;;;-76
2022/12/10 10:57:36;;;;;;;;;;;;;;;0.17;98.12598;101128.3;;;;-77
2022/12/10 11:01:53;;;;;;;25.7;8;;;;;;;;;;;;;-78
2022/12/10 11:02:37;;;;;;;;;;;;;;;0.2;97.96191;101129.9;;;;-78
2022/12/10 11:07:42;;;;;;;;;;;;;;;0.24;97.99219;101133.4;;;;-77
2022/12/10 11:12:43;;;;;;;;;;;;;;;0.27;97.75098;101131.8;;;;-79
2022/12/10 11:17:32;;;;;;;;;;;;;;;0.3;97.77051;101132.4;;;;-77
2022/12/10 11:22:36;;;;;;;;;;;;;;;0.31;97.83691;101129;;;;-77
2022/12/10 11:27:44;;;;;;;;;;;;;;;0.32;98.16992;101119.6;;;;-77
2022/12/10 11:31:54;;;;;;;20.1;7.7;;;;;;;;;;;;;-77
2022/12/10 11:32:36;;;;;;;;;;;;;;;0.34;98.13281;101116;;;;-76
2022/12/10 11:37:35;;;;;;;;;;;;;;;0.36;98.0752;101119.2;;;;-78
2022/12/10 11:42:38;;;;;;;;;;;;;;;0.39;98.21875;101123.7;;;;-77
2022/12/10 11:47:46;;;;;;;;;;;;;;;0.41;97.92188;101126.9;;;;-77
2022/12/10 11:52:39;;;;;;;;;;;;;;;0.42;97.88281;101123.3;;;;-79
2022/12/10 11:57:40;;;;;;;;;;;;;;;0.43;97.98145;101116;;;;-77
2022/12/10 12:01:55;;;;;;;20.7;8.4;;;;;;;;;;;;;-76
2022/12/10 12:02:43;;;;;;;;;;;;;;;0.44;97.98438;101115;;;;-77
2022/12/10 12:07:43;;;;;;;;;;;;;;;0.44;98.2207;101125;;;;-77
2022/12/10 12:12:36;;;;;;;;;;;;;;;0.45;98.2334;101126.1;;;;-77
2022/12/10 12:17:34;;;;;;;;;;;;;;;0.48;98.13379;101132.5;;;;-77
2022/12/10 12:22:37;;;;;;;;;;;;;;;0.51;97.86914;101152.8;;;;-76
2022/12/10 12:27:37;;;;;;;;;;;;;;;0.5;98.01758;101147.7;;;;-76
2022/12/10 12:31:49;;;;;;;23.5;8;;;;;;;;;;;;;-77
2022/12/10 12:32:35;;;;;;;;;;;;;;;0.5;97.91211;101147.6;;;;-77
2022/12/10 12:37:37;;;;;;;;;;;;;;;0.49;98.01758;101135.2;;;;-77
2022/12/10 12:42:35;;;;;;;;;;;;;;;0.52;97.91504;101143.3;;;;-77
2022/12/10 12:47:41;;;;;;;;;;;;;;;0.54;97.68457;101152;;;;-76
2022/12/10 12:52:37;;;;;;;;;;;;;;;0.56;97.85156;101154.9;;;;-78
2022/12/10 12:57:37;;;;;;;;;;;;;;;0.55;97.84766;101155.6;;;;-78
2022/12/10 13:01:47;;;;;;;20.2;7.4;;;;;;;;;;;;;-77
2022/12/10 13:02:42;;;;;;;;;;;;;;;0.57;97.64746;101167.7;;;;-78
2022/12/10 13:07:38;;;;;;;;;;;;;;;0.56;97.7959;101157.6;;;;-77
2022/12/10 13:12:36;;;;;;;;;;;;;;;0.57;97.75488;101160.6;;;;-77
2022/12/10 13:17:35;;;;;;;;;;;;;;;0.59;97.63184;101156.7;;;;-78
2022/12/10 13:22:58;;;;;;;;;;;;;;;0.62;97.54199;101163.7;;;;-76
2022/12/10 13:27:35;;;;;;;;;;;;;;;0.64;97.55664;101165.9;;;;-76
2022/12/10 13:31:44;;;;;;;20.1;7.5;;;;;;;;;;;;;-77
2022/12/10 13:32:42;;;;;;;;;;;;;;;0.64;97.52441;101167.4;;;;-76
2022/12/10 13:37:38;;;;;;;;;;;;;;;0.63;97.57617;101165.5;;;;-77
2022/12/10 13:47:42;;;;;;;;;;;;;;;0.63;97.55469;101167.2;;;;-77
2022/12/10 13:52:36;;;;;;;;;;;;;;;0.63;97.69434;101171.6;;;;-77
2022/12/10 13:57:38;;;;;;;;;;;;;;;0.62;97.66016;101174.4;;;;-77
2022/12/10 14:01:45;;;;;;;22.8;7.9;;;;;;;;;;;;;-76
2022/12/10 14:02:40;;;;;;;;;;;;;;;0.61;97.67969;101176.6;;;;-77
2022/12/10 14:07:32;;;;;;;;;;;;;;;0.6;97.6748;101178.4;;;;-77
2022/12/10 14:12:34;;;;;;;;;;;;;;;0.6;97.80469;101177.1;;;;-77
2022/12/10 14:17:34;;;;;;;;;;;;;;;0.58;97.76758;101180;;;;-77
2022/12/10 14:22:34;;;;;;;;;;;;;;;0.56;97.94629;101181.1;;;;-77
2022/12/10 14:27:32;;;;;;;;;;;;;;;0.52;98.14063;101175.7;;;;-75
2022/12/10 14:31:43;;;;;;;28.6;8.9;;;;;;;;;;;;;-76
2022/12/10 14:32:35;;;;;;;;;;;;;;;0.52;98.07813;101178.6;;;;-74
2022/12/10 14:37:34;;;;;;;;;;;;;;;0.5;98.04199;101176.7;;;;-76
2022/12/10 14:42:35;;;;;;;;;;;;;;;0.51;97.86133;101177.4;;;;-76
2022/12/10 14:47:35;;;;;;;;;;;;;;;0.48;98.06934;101176;;;;-76
2022/12/10 14:52:38;;;;;;;;;;;;;;;0.49;97.9834;101177.7;;;;-75
2022/12/10 14:57:34;;;;;;;;;;;;;;;0.47;98.0332;101181.8;;;;-75
2022/12/10 15:01:42;;;;;;;29.2;8.9;;;;;;;;;;;;;-76
2022/12/10 15:02:34;;;;;;;;;;;;;;;0.45;97.92383;101181.7;;;;-76
2022/12/10 15:07:36;;;;;;;;;;;;;;;0.45;97.9541;101176.4;;;;-75
2022/12/10 15:12:42;;;;;;;;;;;;;;;0.46;97.93457;101181.8;;;;-76
2022/12/10 15:17:43;;;;;;;;;;;;;;;0.46;97.74121;101182.5;;;;-76
2022/12/10 15:22:35;;;;;;;;;;;;;;;0.43;97.97363;101186.5;;;;-77
2022/12/10 15:27:33;;;;;;;;;;;;;;;0.43;98.02441;101184.7;;;;-76
2022/12/10 15:31:40;;;;;;;32.6;10.1;;;;;;;;;;;;;-76
2022/12/10 15:32:32;;;;;;;;;;;;;;;0.4;98.20996;101182.1;;;;-76
2022/12/10 15:37:45;;;;;;;;;;;;;;;0.4;98.26367;101183.8;;;;-76
2022/12/10 15:42:40;;;;;;;;;;;;;;;0.41;97.99902;101187.2;;;;-76
2022/12/10 15:47:33;;;;;;;;;;;;;;;0.4;98.10254;101192.5;;;;-77
2022/12/10 15:52:33;;;;;;;;;;;;;;;0.4;98.23145;101191.9;;;;-77
2022/12/10 15:57:33;;;;;;;;;;;;;;;0.39;98.24219;101184.9;;;;-76
2022/12/10 16:01:39;;;;;;;27.2;8.4;;;;;;;;;;;;;-76
2022/12/10 16:02:39;;;;;;;;;;;;;;;0.4;98.05078;101182.5;;;;-76
2022/12/10 16:07:32;;;;;;;;;;;;;;;0.42;98.10645;101192.6;;;;-75
2022/12/10 16:12:32;;;;;;;;;;;;;;;0.44;98.00586;101192.1;;;;-75
2022/12/10 16:17:33;;;;;;;;;;;;;;;0.46;98.21582;101190.2;;;;-75
2022/12/10 16:22:32;;;;;;;;;;;;;;;0.43;98.2959;101190.7;;;;-78
2022/12/10 16:27:36;;;;;;;;;;;;;;;0.43;98.05664;101202.4;;;;-77
2022/12/10 16:31:38;;;;;;;24;8.1;;;;;;;;;;;;;-78
2022/12/10 16:32:34;;;;;;;;;;;;;;;0.44;98.16699;101199.1;;;;-78
2022/12/10 16:37:35;;;;;;;;;;;;;;;0.43;98.31543;101200.1;;;;-77
2022/12/10 16:42:32;;;;;;;;;;;;;;;0.44;98.30664;101199.4;;;;-76
2022/12/10 16:47:32;;;;;;;;;;;;;;;0.43;98.20996;101198;;;;-77
2022/12/10 16:52:32;;;;;;;;;;;;;;;0.45;98.42676;101194.8;;;;-76
2022/12/10 16:57:32;;;;;;;;;;;;;;;0.48;98.25;101196.6;;;;-76
2022/12/10 17:01:36;;;;;;;28.5;9.2;;;;;;;;;;;;;-78
2022/12/10 17:02:32;;;;;;;;;;;;;;;0.48;98.1748;101204.9;;;;-76
2022/12/10 17:07:32;;;;;;;;;;;;;;;0.48;98.21973;101207.6;;;;-77
2022/12/10 17:12:32;;;;;;;;;;;;;;;0.57;98.08887;101203.8;;;;-77
2022/12/10 17:17:32;;;;;;;;;;;;;;;0.54;97.99609;101204.9;;;;-78
2022/12/10 17:22:32;;;;;;;;;;;;;;;0.53;98.06934;101205.1;;;;-77
2022/12/10 17:27:32;;;;;;;;;;;;;;;0.54;98.08203;101204;;;;-77
2022/12/10 17:31:35;;;;;;;30.7;9.8;;;;;;;;;;;;;-79
2022/12/10 17:32:32;;;;;;;;;;;;;;;0.57;98.28223;101201.1;;;;-78
2022/12/10 17:37:34;;;;;;;;;;;;;;;0.55;98.33105;101207;;;;-77
2022/12/10 17:42:35;;;;;;;;;;;;;;;0.56;98.03418;101205.4;;;;-77
2022/12/10 17:47:32;;;;;;;;;;;;;;;0.6;98.14844;101207.3;;;;-77
2022/12/10 17:52:33;;;;;;;;;;;;;;;0.61;97.83008;101206.8;;;;-77
2022/12/10 17:57:32;;;;;;;;;;;;;;;0.6;97.94434;101213.4;;;;-77
2022/12/10 18:01:36;;;;;;;34.5;9.8;;;;;;;;;;;;;-76
2022/12/10 18:02:32;;;;;;;;;;;;;;;0.6;98.15039;101210.2;;;;-77
2022/12/10 18:07:32;;;;;;;;;;;;;;;0.6;98.03027;101209.7;;;;-76
2022/12/10 18:12:32;;;;;;;;;;;;;;;0.61;97.87305;101209.2;;;;-76
2022/12/10 18:17:32;;;;;;;;;;;;;;;0.62;98.07715;101209.4;;;;-77
2022/12/10 18:22:34;;;;;;;;;;;;;;;0.6;98.12891;101206.9;;;;-76
2022/12/10 18:27:33;;;;;;;;;;;;;;;0.65;97.7627;101204.4;;;;-76
2022/12/10 18:31:33;;;;;;;35.4;10.3;;;;;;;;;;;;;-75
2022/12/10 18:32:32;;;;;;;;;;;;;;;0.63;97.87695;101205.7;;;;-77
2022/12/10 18:37:32;;;;;;;;;;;;;;;0.65;97.85938;101198.7;;;;-77
2022/12/10 18:42:32;;;;;;;;;;;;;;;0.66;97.82129;101210;;;;-77
2022/12/10 18:47:32;;;;;;;;;;;;;;;0.67;98.15625;101216.3;;;;-76
2022/12/10 18:52:32;;;;;;;;;;;;;;;0.67;97.84277;101221.3;;;;-76
2022/12/10 18:57:33;;;;;;;;;;;;;;;0.65;97.92383;101219.4;;;;-77
2022/12/10 19:01:32;;;;;;;36.7;11.1;;;;;;;;;;;;;-77
2022/12/10 19:02:32;;;;;;;;;;;;;;;0.65;97.92383;101219.5;;;;-75
2022/12/10 19:07:32;;;;;;;;;;;;;;;0.7;97.91504;101223.4;;;;-76
2022/12/10 19:12:32;;;;;;;;;;;;;;;0.7;98.0332;101224.7;;;;-77
2022/12/10 19:17:32;;;;;;;;;;;;;;;0.72;97.95996;101224.7;;;;-76
2022/12/10 19:22:32;;;;;;;;;;;;;;;0.74;98.25684;101226.1;;;;-77
2022/12/10 19:27:33;;;;;;;;;;;;;;;0.74;98.26758;101225.7;;;;-78
2022/12/10 19:31:30;;;;;;;36.1;11.1;;;;;;;;;;;;;-78
2022/12/10 19:32:35;;;;;;;;;;;;;;;0.76;98.14453;101228.5;;;;-78
2022/12/10 19:37:34;;;;;;;;;;;;;;;0.76;98.31445;101230.2;;;;-78
2022/12/10 19:42:32;;;;;;;;;;;;;;;0.77;98.27344;101234.2;;;;-78
2022/12/10 19:47:32;;;;;;;;;;;;;;;0.78;98.19238;101232.7;;;;-78
2022/12/10 19:52:33;;;;;;;;;;;;;;;0.78;98.25684;101234.1;;;;-78
2022/12/10 19:57:32;;;;;;;;;;;;;;;0.79;98.16016;101235.7;;;;-77
2022/12/10 20:01:28;;;;;;;39.7;11.8;;;;;;;;;;;;;-76
2022/12/10 20:02:33;;;;;;;;;;;;;;;0.81;98.1875;101231.4;;;;-77
2022/12/10 20:07:32;;;;;;;;;;;;;;;0.82;98.09082;101223.6;;;;-77
2022/12/10 20:12:32;;;;;;;;;;;;;;;0.83;98.49316;101226.6;;;;-77
2022/12/10 20:17:32;;;;;;;;;;;;;;;0.81;98.1123;101226.9;;;;-76
2022/12/10 20:22:32;;;;;;;;;;;;;;;0.86;98.17676;101219.2;;;;-79
2022/12/10 20:27:33;;;;;;;;;;;;;;;0.83;98.15723;101225.1;;;;-77
2022/12/10 20:31:28;;;;;;;34.4;10.7;;;;;;;;;;;;;-77
2022/12/10 20:32:32;;;;;;;;;;;;;;;0.83;98.32129;101226.5;;;;-78
2022/12/10 20:37:32;;;;;;;;;;;;;;;0.86;98.01465;101227.9;;;;-78
2022/12/10 20:42:34;;;;;;;;;;;;;;;0.88;98.2666;101227;;;;-78
2022/12/10 20:47:32;;;;;;;;;;;;;;;0.93;97.93457;101229.6;;;;-78
2022/12/10 20:52:32;;;;;;;;;;;;;;;0.94;97.94727;101231.5;;;;-77
2022/12/10 20:57:32;;;;;;;;;;;;;;;0.93;98.08301;101236.5;;;;-77
2022/12/10 21:01:26;;;;;;;35.5;11.2;;;;;;;;;;;;;-77
2022/12/10 21:02:32;;;;;;;;;;;;;;;0.9;98.10059;101234.9;;;;-77
2022/12/10 21:07:32;;;;;;;;;;;;;;;0.95;98.43359;101227.5;;;;-76
2022/12/10 21:12:32;;;;;;;;;;;;;;;0.96;98.24414;101224;;;;-76
2022/12/10 21:17:32;;;;;;;;;;;;;;;0.96;98.07227;101225.3;;;;-77
2022/12/10 21:22:32;;;;;;;;;;;;;;;0.95;98.04688;101228.6;;;;-75
2022/12/10 21:27:32;;;;;;;;;;;;;;;1;98.41211;101230.2;;;;-76
2022/12/10 21:31:26;;;;;;;34.1;10.4;;;;;;;;;;;;;-76
2022/12/10 21:32:32;;;;;;;;;;;;;;;0.97;98.12793;101231.2;;;;-76
2022/12/10 21:37:32;;;;;;;;;;;;;;;0.97;98.10449;101234;;;;-76
2022/12/10 21:47:34;;;;;;;;;;;;;;;1.02;98.42969;101236.8;;;;-77
2022/12/10 21:52:32;;;;;;;;;;;;;;;1.04;98.43359;101236.7;;;;-77
2022/12/10 21:57:32;;;;;;;;;;;;;;;1.02;98.04004;101234.4;;;;-77
2022/12/10 22:01:24;;;;;;;34.1;10.3;;;;;;;;;;;;;-77
2022/12/10 22:02:33;;;;;;;;;;;;;;;1.03;98.09766;101232.5;;;;-77
2022/12/10 22:07:32;;;;;;;;;;;;;;;1.02;98.14746;101229.5;;;;-76
2022/12/10 22:12:32;;;;;;;;;;;;;;;1.06;98.19043;101231.3;;;;-77
2022/12/10 22:17:32;;;;;;;;;;;;;;;1.05;98.17676;101230;;;;-77
2022/12/10 22:22:32;;;;;;;;;;;;;;;1.05;97.96387;101219.2;;;;-76
2022/12/10 22:27:34;;;;;;;;;;;;;;;1.06;98.1709;101220;;;;-77
2022/12/10 22:31:23;;;;;;;33.6;11.2;;;;;;;;;;;;;-77
2022/12/10 22:32:32;;;;;;;;;;;;;;;1.06;98.11426;101214.6;;;;-77
2022/12/10 22:37:33;;;;;;;;;;;;;;;1.07;98.11719;101218.4;;;;-77
2022/12/10 22:42:32;;;;;;;;;;;;;;;1.09;98.09961;101213.8;;;;-75
2022/12/10 22:47:33;;;;;;;;;;;;;;;1.08;98.13184;101215.7;;;;-76
2022/12/10 22:52:35;;;;;;;;;;;;;;;1.06;98.39648;101212.3;;;;-76
2022/12/10 22:57:32;;;;;;;;;;;;;;;1.12;98.28809;101212.4;;;;-76
2022/12/10 23:01:22;;;;;;;36.3;11.2;;;;;;;;;;;;;-76
2022/12/10 23:02:32;;;;;;;;;;;;;;;1.11;98.2998;101220.4;;;;-76
2022/12/10 23:07:32;;;;;;;;;;;;;;;1.09;98.3252;101218.9;;;;-77
2022/12/10 23:17:32;;;;;;;;;;;;;;;1.08;98.83105;101211.6;;;;-76
2022/12/10 23:22:32;;;;;;;;;;;;;;;1.06;98.48242;101214.2;;;;-75
2022/12/10 23:27:32;;;;;;;;;;;;;;;1.06;98.46094;101212.7;;;;-76
2022/12/10 23:31:21;;;;;;;33.8;10.9;;;;;;;;;;;;;-76
2022/12/10 23:32:34;;;;;;;;;;;;;;;1.06;98.60938;101208.6;;;;-77
2022/12/10 23:37:32;;;;;;;;;;;;;;;1.06;98.5791;101209.4;;;;-77
2022/12/10 23:42:33;;;;;;;;;;;;;;;1.07;98.6123;101200.7;;;;-76
2022/12/10 23:47:32;;;;;;;;;;;;;;;1.08;98.53906;101201.2;;;;-75
2022/12/10 23:52:32;;;;;;;;;;;;;;;1.09;98.82031;101204.1;;;;-78
2022/12/10 23:57:32;;;;;;;;;;;;;;;1.07;98.8916;101202.8;;;;-76
